createdAt,value
2019-03-11T00:00:56.987Z,12.28
2019-03-11T00:03:26.377Z,12.35
2019-03-11T00:05:55.748Z,12.40
2019-03-11T00:08:25.186Z,12.60
2019-03-11T00:10:54.552Z,12.77
2019-03-11T00:13:24.379Z,12.79
2019-03-11T00:15:54.611Z,12.65
2019-03-11T00:18:24.015Z,12.37
2019-03-11T00:20:53.753Z,12.25
2019-03-11T00:23:23.122Z,12.27
2019-03-11T00:25:52.494Z,12.43
2019-03-11T00:28:21.871Z,12.63
2019-03-11T00:30:51.279Z,12.79
2019-03-11T00:33:20.732Z,12.85
2019-03-11T00:35:50.107Z,12.82
2019-03-11T00:38:19.499Z,12.72
2019-03-11T00:40:48.860Z,12.59
2019-03-11T00:43:18.291Z,12.46
2019-03-11T00:45:48.134Z,12.38
2019-03-11T00:48:17.517Z,12.33
2019-03-11T00:50:46.964Z,12.35
2019-03-11T00:53:16.370Z,12.39
2019-03-11T00:55:45.718Z,12.44
2019-03-11T00:58:15.130Z,12.47
2019-03-11T01:00:44.594Z,12.46
2019-03-11T01:03:13.997Z,12.50
2019-03-11T01:05:43.378Z,12.41
2019-03-11T01:08:12.760Z,12.33
2019-03-11T01:10:42.164Z,12.29
2019-03-11T01:13:11.633Z,12.23
2019-03-11T01:15:40.997Z,11.87
2019-03-11T01:18:10.383Z,12.22
2019-03-11T01:20:39.733Z,12.13
2019-03-11T01:23:09.096Z,12.00
2019-03-11T01:25:38.428Z,11.84
2019-03-11T01:28:07.823Z,11.55
2019-03-11T01:30:37.194Z,11.29
2019-03-11T01:33:06.950Z,11.22
2019-03-11T01:35:36.336Z,11.12
2019-03-11T01:38:05.833Z,11.01
2019-03-11T01:40:35.335Z,10.90
2019-03-11T01:43:04.770Z,10.86
2019-03-11T01:45:34.186Z,10.81
2019-03-11T01:48:04.006Z,10.75
2019-03-11T01:50:33.439Z,10.63
2019-03-11T01:53:03.218Z,10.58
2019-03-11T01:55:32.659Z,10.53
2019-03-11T01:58:02.088Z,10.53
2019-03-11T02:00:31.458Z,10.54
2019-03-11T02:03:00.803Z,10.55
2019-03-11T02:05:30.171Z,10.16
2019-03-11T02:07:59.910Z,10.61
2019-03-11T02:10:29.326Z,10.65
2019-03-11T02:12:58.997Z,10.65
2019-03-11T02:15:28.822Z,10.66
2019-03-11T02:17:58.199Z,10.65
2019-03-11T02:20:27.614Z,10.64
2019-03-11T02:22:56.954Z,10.68
2019-03-11T02:25:26.357Z,10.68
2019-03-11T02:27:55.724Z,10.64
2019-03-11T02:30:25.045Z,10.60
2019-03-11T02:32:54.419Z,10.52
2019-03-11T02:35:32.666Z,10.40
2019-03-11T02:38:02.068Z,10.38
2019-03-11T02:40:31.522Z,10.41
2019-03-11T02:43:00.943Z,10.35
2019-03-11T02:45:30.348Z,10.37
2019-03-11T02:47:59.754Z,10.29
2019-03-11T02:50:29.167Z,10.31
2019-03-11T02:52:58.549Z,10.26
2019-03-11T02:55:27.942Z,10.27
2019-03-11T02:57:57.339Z,10.33
2019-03-11T03:00:26.706Z,10.32
2019-03-11T03:03:30.455Z,10.28
2019-03-11T03:06:03.777Z,10.23
2019-03-11T03:08:33.124Z,10.15
2019-03-11T03:11:02.551Z,10.08
2019-03-11T03:13:31.936Z,10.05
2019-03-11T03:16:01.265Z,10.16
2019-03-11T03:18:30.638Z,10.41
2019-03-11T03:21:00.007Z,10.42
2019-03-11T03:23:29.793Z,10.41
2019-03-11T03:25:59.153Z,10.44
2019-03-11T03:28:28.861Z,10.53
2019-03-11T03:30:58.229Z,10.54
2019-03-11T03:33:27.587Z,10.56
2019-03-11T03:35:56.974Z,10.59
2019-03-11T03:38:30.974Z,10.64
2019-03-11T03:40:57.421Z,10.62
2019-03-11T03:43:26.782Z,10.57
2019-03-11T03:45:56.153Z,10.53
2019-03-11T03:48:25.561Z,10.47
2019-03-11T03:50:54.893Z,10.40
2019-03-11T03:53:24.241Z,10.48
2019-03-11T03:55:53.596Z,10.43
2019-03-11T03:58:22.995Z,10.36
2019-03-11T04:00:52.461Z,10.36
2019-03-11T04:03:21.840Z,10.27
2019-03-11T04:05:51.195Z,10.27
2019-03-11T04:08:20.594Z,10.27
2019-03-11T04:10:49.968Z,10.27
2019-03-11T04:13:19.338Z,10.30
2019-03-11T04:15:48.712Z,10.35
2019-03-11T04:18:18.201Z,10.35
2019-03-11T04:20:47.564Z,10.39
2019-03-11T04:23:16.980Z,10.39
2019-03-11T04:25:46.449Z,10.47
2019-03-11T04:28:15.791Z,10.44
2019-03-11T04:30:45.205Z,10.42
2019-03-11T04:33:14.585Z,10.43
2019-03-11T04:35:43.977Z,10.40
2019-03-11T04:38:13.412Z,10.36
2019-03-11T04:40:42.773Z,10.30
2019-03-11T04:43:12.166Z,10.36
2019-03-11T04:45:41.551Z,10.45
2019-03-11T04:48:10.905Z,10.43
2019-03-11T04:50:40.299Z,10.44
2019-03-11T04:53:09.696Z,10.48
2019-03-11T04:55:39.102Z,10.57
2019-03-11T04:58:08.444Z,10.61
2019-03-11T05:00:37.884Z,10.66
2019-03-11T05:03:07.303Z,10.73
2019-03-11T05:05:36.669Z,10.82
2019-03-11T05:08:06.071Z,11.06
2019-03-11T05:10:35.500Z,11.18
2019-03-11T05:13:04.910Z,11.15
2019-03-11T05:15:34.406Z,11.08
2019-03-11T05:18:04.264Z,11.09
2019-03-11T05:20:33.746Z,11.06
2019-03-11T05:23:04.072Z,11.10
2019-03-11T05:25:36.349Z,11.16
2019-03-11T05:28:05.758Z,11.18
2019-03-11T05:30:35.228Z,11.21
2019-03-11T05:33:04.795Z,11.34
2019-03-11T05:35:34.198Z,11.47
2019-03-11T05:38:05.531Z,11.41
2019-03-11T05:40:34.897Z,11.41
2019-03-11T05:43:04.261Z,11.44
2019-03-11T05:45:33.629Z,11.55
2019-03-11T05:48:02.985Z,11.68
2019-03-11T05:50:32.389Z,11.75
2019-03-11T05:53:01.716Z,11.76
2019-03-11T05:55:31.106Z,11.75
2019-03-11T05:58:00.661Z,11.84
2019-03-11T06:00:31.455Z,11.92
2019-03-11T06:03:00.932Z,11.77
2019-03-11T06:05:30.342Z,11.97
2019-03-11T06:07:59.848Z,12.02
2019-03-11T06:10:29.226Z,12.05
2019-03-11T06:12:59.100Z,11.99
2019-03-11T06:15:28.514Z,11.99
2019-03-11T06:17:57.923Z,12.14
2019-03-11T06:20:41.661Z,12.26
2019-03-11T06:23:11.958Z,12.18
2019-03-11T06:25:41.775Z,12.20
2019-03-11T06:28:11.224Z,12.56
2019-03-11T06:30:40.655Z,13.75
2019-03-11T06:33:10.117Z,14.16
2019-03-11T06:35:40.479Z,13.88
2019-03-11T06:38:10.667Z,13.79
2019-03-11T06:40:40.227Z,13.81
2019-03-11T06:43:09.727Z,13.09
2019-03-11T06:45:44.221Z,14.18
2019-03-11T06:48:31.999Z,14.11
2019-03-11T06:51:05.199Z,14.08
2019-03-11T06:53:34.709Z,14.07
2019-03-11T06:56:05.526Z,14.13
2019-03-11T06:58:34.977Z,14.33
2019-03-11T07:01:04.400Z,14.13
2019-03-11T07:03:40.113Z,14.77
2019-03-11T07:06:12.586Z,15.32
2019-03-11T07:08:41.959Z,15.85
2019-03-11T07:11:11.325Z,12.26
2019-03-11T07:13:40.729Z,16.37
2019-03-11T07:16:10.050Z,16.81
2019-03-11T07:18:39.435Z,16.62
2019-03-11T07:21:08.826Z,17.66
2019-03-11T07:23:38.237Z,18.30
2019-03-11T07:26:09.969Z,18.61
2019-03-11T07:28:39.393Z,17.75
2019-03-11T07:31:09.061Z,18.43
2019-03-11T07:33:38.556Z,18.82
2019-03-11T07:36:10.101Z,19.18
2019-03-11T07:38:39.751Z,18.65
2019-03-11T07:41:09.261Z,19.14
2019-03-11T07:43:38.698Z,19.46
2019-03-11T07:46:08.565Z,19.01
2019-03-11T07:48:37.949Z,18.20
2019-03-11T07:51:07.415Z,18.75
2019-03-11T07:53:36.884Z,18.63
2019-03-11T07:56:06.250Z,18.76
2019-03-11T07:58:35.684Z,18.82
2019-03-11T08:01:06.356Z,19.14
2019-03-11T08:03:36.746Z,19.25
2019-03-11T08:06:17.824Z,19.58
2019-03-11T08:08:38.154Z,20.18
2019-03-11T08:11:07.520Z,20.39
2019-03-11T08:13:37.193Z,20.08
2019-03-11T08:16:10.102Z,19.64
2019-03-11T08:18:39.567Z,19.84
2019-03-11T08:21:08.931Z,20.77
2019-03-11T08:23:38.469Z,21.17
2019-03-11T08:26:07.889Z,20.80
2019-03-11T08:28:37.271Z,21.22
2019-03-11T08:31:06.741Z,20.86
2019-03-11T08:33:36.444Z,21.02
2019-03-11T08:36:05.857Z,21.44
2019-03-11T08:38:35.259Z,21.22
2019-03-11T08:41:04.701Z,21.07
2019-03-11T08:43:34.288Z,21.65
2019-03-11T08:46:03.756Z,21.48
2019-03-11T08:48:33.191Z,21.32
2019-03-11T08:51:02.718Z,21.18
2019-03-11T08:53:32.140Z,20.74
2019-03-11T08:56:01.901Z,20.71
2019-03-11T08:58:31.274Z,21.39
2019-03-11T09:01:00.693Z,21.71
2019-03-11T09:03:30.987Z,22.18
2019-03-11T09:06:00.366Z,22.74
2019-03-11T09:08:29.929Z,22.60
2019-03-11T09:10:59.309Z,21.89
2019-03-11T09:13:28.803Z,21.13
2019-03-11T09:15:58.315Z,21.14
2019-03-11T09:18:27.692Z,21.26
2019-03-11T09:20:57.101Z,21.33
2019-03-11T09:23:26.667Z,21.29
2019-03-11T09:25:56.064Z,21.04
2019-03-11T09:28:25.807Z,20.94
2019-03-11T09:30:55.299Z,21.13
2019-03-11T09:33:24.693Z,21.35
2019-03-11T09:35:54.206Z,21.59
2019-03-11T09:38:24.008Z,21.72
2019-03-11T09:40:53.540Z,22.11
2019-03-11T09:43:22.961Z,21.93
2019-03-11T09:45:52.717Z,22.18
2019-03-11T09:48:22.501Z,21.69
2019-03-11T09:50:52.189Z,21.38
2019-03-11T09:53:21.563Z,20.91
2019-03-11T09:55:50.969Z,19.89
2019-03-11T09:58:22.049Z,19.21
2019-03-11T10:00:51.497Z,18.62
2019-03-11T10:03:21.415Z,18.46
2019-03-11T10:05:50.801Z,18.25
2019-03-11T10:08:20.701Z,17.80
2019-03-11T10:10:50.143Z,17.69
2019-03-11T10:13:19.570Z,17.40
2019-03-11T10:15:49.640Z,17.13
2019-03-11T10:18:19.050Z,17.03
2019-03-11T10:20:48.604Z,16.79
2019-03-11T10:23:18.172Z,16.60
2019-03-11T10:25:47.882Z,16.54
2019-03-11T10:28:17.267Z,16.88
2019-03-11T10:30:46.711Z,16.86
2019-03-11T10:33:16.112Z,16.63
2019-03-11T10:35:45.576Z,16.56
2019-03-11T10:38:14.947Z,15.96
2019-03-11T10:40:44.354Z,17.13
2019-03-11T10:43:13.969Z,17.30
2019-03-11T10:45:45.795Z,17.57
2019-03-11T10:48:15.226Z,17.61
2019-03-11T10:50:44.831Z,17.37
2019-03-11T10:53:14.355Z,17.45
2019-03-11T10:55:44.101Z,17.14
2019-03-11T10:58:13.873Z,16.90
2019-03-11T11:00:43.613Z,16.84
2019-03-11T11:03:13.029Z,16.89
2019-03-11T11:05:42.637Z,16.60
2019-03-11T11:08:12.296Z,17.16
2019-03-11T11:10:41.778Z,17.96
2019-03-11T11:13:12.017Z,17.46
2019-03-11T11:15:41.687Z,17.33
2019-03-11T11:18:11.238Z,17.79
2019-03-11T11:20:40.661Z,18.14
2019-03-11T11:23:19.469Z,17.85
2019-03-11T11:25:48.830Z,17.49
2019-03-11T11:28:18.239Z,17.75
2019-03-11T11:30:47.676Z,18.13
2019-03-11T11:33:17.032Z,18.22
2019-03-11T11:35:46.395Z,18.17
2019-03-11T11:38:15.734Z,18.36
2019-03-11T11:40:45.601Z,17.96
2019-03-11T11:43:15.036Z,17.82
2019-03-11T11:45:44.509Z,18.02
2019-03-11T11:48:13.903Z,18.36
2019-03-11T11:50:43.553Z,19.21
2019-03-11T11:53:12.976Z,20.03
2019-03-11T11:55:42.404Z,19.97
2019-03-11T11:58:11.798Z,20.71
2019-03-11T12:00:43.832Z,21.00
2019-03-11T12:03:13.160Z,20.94
2019-03-11T12:05:42.493Z,21.11
2019-03-11T12:08:11.858Z,20.86
2019-03-11T12:10:41.344Z,19.63
2019-03-11T12:13:10.715Z,19.41
2019-03-11T12:15:40.121Z,19.76
2019-03-11T12:18:09.457Z,19.34
2019-03-11T12:20:38.820Z,18.97
2019-03-11T12:23:08.226Z,18.55
2019-03-11T12:25:38.144Z,18.25
2019-03-11T12:28:07.558Z,18.25
2019-03-11T12:30:37.060Z,18.17
2019-03-11T12:33:06.653Z,18.01
2019-03-11T12:35:36.265Z,18.12
2019-03-11T12:38:05.869Z,18.20
2019-03-11T12:40:35.312Z,18.37
2019-03-11T12:43:04.712Z,18.28
2019-03-11T12:45:34.126Z,18.13
2019-03-11T12:48:03.524Z,18.43
2019-03-11T12:50:32.938Z,18.91
2019-03-11T12:53:02.345Z,19.53
2019-03-11T12:55:31.775Z,19.53
2019-03-11T12:58:01.191Z,18.39
2019-03-11T13:00:30.576Z,20.15
2019-03-11T13:03:00.000Z,20.05
2019-03-11T13:05:29.391Z,20.14
2019-03-11T13:07:59.196Z,19.83
2019-03-11T13:10:28.635Z,19.53
2019-03-11T13:12:58.049Z,19.33
2019-03-11T13:15:27.585Z,18.16
2019-03-11T13:17:57.031Z,18.52
2019-03-11T13:20:31.968Z,18.15
2019-03-11T13:23:01.461Z,18.09
2019-03-11T13:25:30.851Z,18.13
2019-03-11T13:28:00.577Z,18.04
2019-03-11T13:30:30.101Z,17.85
2019-03-11T13:32:59.487Z,17.89
2019-03-11T13:35:28.856Z,17.67
2019-03-11T13:37:58.249Z,17.76
2019-03-11T13:40:28.164Z,17.81
2019-03-11T13:42:57.596Z,17.91
2019-03-11T13:45:26.978Z,17.69
2019-03-11T13:47:56.415Z,17.64
2019-03-11T13:50:25.808Z,17.60
2019-03-11T13:52:55.222Z,17.59
2019-03-11T13:55:24.618Z,17.61
2019-03-11T13:57:54.331Z,17.68
2019-03-11T14:00:24.447Z,17.80
2019-03-11T14:02:53.869Z,17.84
2019-03-11T14:05:23.561Z,17.55
2019-03-11T14:07:52.922Z,17.17
2019-03-11T14:10:22.343Z,16.87
2019-03-11T14:12:56.887Z,16.61
2019-03-11T14:15:26.258Z,16.57
2019-03-11T14:17:55.777Z,16.22
2019-03-11T14:20:25.241Z,15.95
2019-03-11T14:22:54.678Z,15.79
2019-03-11T14:25:24.072Z,15.64
2019-03-11T14:27:53.569Z,15.34
2019-03-11T14:30:24.077Z,15.30
2019-03-11T14:32:53.553Z,15.10
2019-03-11T14:35:23.117Z,15.00
2019-03-11T14:37:52.700Z,14.93
2019-03-11T14:40:24.912Z,14.81
2019-03-11T14:42:54.351Z,14.65
2019-03-11T14:45:25.006Z,14.58
2019-03-11T14:47:54.422Z,14.52
2019-03-11T14:50:24.187Z,14.16
2019-03-11T14:52:53.532Z,14.00
2019-03-11T14:55:22.911Z,13.82
2019-03-11T14:57:52.289Z,13.73
2019-03-11T15:00:22.526Z,13.56
2019-03-11T15:02:52.490Z,13.39
2019-03-11T15:05:21.991Z,13.32
2019-03-11T15:07:51.354Z,13.36
2019-03-11T15:10:21.028Z,13.37
2019-03-11T15:12:50.404Z,13.21
2019-03-11T15:15:20.012Z,13.08
2019-03-11T15:17:50.237Z,12.57
2019-03-11T15:20:19.936Z,12.31
2019-03-11T15:22:49.559Z,12.12
2019-03-11T15:25:19.435Z,11.93
2019-03-11T15:27:49.574Z,11.60
2019-03-11T15:30:20.997Z,11.49
2019-03-11T15:32:53.831Z,11.50
2019-03-11T15:35:23.721Z,11.46
2019-03-11T15:37:53.167Z,11.38
2019-03-11T15:40:22.636Z,11.17
2019-03-11T15:42:52.092Z,11.06
2019-03-11T15:45:21.806Z,11.01
2019-03-11T15:47:51.285Z,11.04
2019-03-11T15:50:23.256Z,10.97
2019-03-11T15:52:52.724Z,10.96
2019-03-11T15:55:22.142Z,10.89
2019-03-11T15:57:52.687Z,10.81
2019-03-11T16:00:22.262Z,5.91
2019-03-11T16:02:51.986Z,10.54
2019-03-11T16:05:22.033Z,10.57
2019-03-11T16:07:52.290Z,10.57
2019-03-11T16:10:22.137Z,10.54
2019-03-11T16:12:51.635Z,10.39
2019-03-11T16:15:21.211Z,10.28
2019-03-11T16:17:53.665Z,10.29
2019-03-11T16:20:23.248Z,10.38
2019-03-11T16:22:52.636Z,10.51
2019-03-11T16:25:22.151Z,10.34
2019-03-11T16:27:51.571Z,10.36
2019-03-11T16:30:21.131Z,10.37
2019-03-11T16:33:00.445Z,10.17
2019-03-11T16:35:22.420Z,9.61
2019-03-11T16:37:51.785Z,9.79
2019-03-11T16:40:21.278Z,9.66
2019-03-11T16:42:50.662Z,9.59
2019-03-11T16:45:20.607Z,9.56
2019-03-11T16:47:50.277Z,9.56
2019-03-11T16:50:19.760Z,9.47
2019-03-11T16:52:49.150Z,9.32
2019-03-11T16:55:21.050Z,9.25
2019-03-11T16:57:53.446Z,9.16
2019-03-11T17:00:25.939Z,9.12
2019-03-11T17:02:55.485Z,9.01
2019-03-11T17:05:24.931Z,8.90
2019-03-11T17:07:54.347Z,8.83
2019-03-11T17:10:24.248Z,8.82
2019-03-11T17:12:53.845Z,8.74
2019-03-11T17:15:23.252Z,8.75
2019-03-11T17:17:52.656Z,8.57
2019-03-11T17:20:22.238Z,8.47
2019-03-11T17:22:51.679Z,8.34
2019-03-11T17:25:21.134Z,8.34
2019-03-11T17:27:50.611Z,8.34
2019-03-11T17:30:20.167Z,8.17
2019-03-11T17:32:49.761Z,8.11
2019-03-11T17:35:19.215Z,8.05
2019-03-11T17:37:49.057Z,7.91
2019-03-11T17:40:19.003Z,7.87
2019-03-11T17:42:48.439Z,7.82
2019-03-11T17:45:18.082Z,7.53
2019-03-11T17:47:48.299Z,7.43
2019-03-11T17:50:18.045Z,7.32
2019-03-11T17:52:47.809Z,7.03
2019-03-11T17:55:17.659Z,7.03
2019-03-11T17:57:47.240Z,6.98
2019-03-11T18:00:21.637Z,6.83
2019-03-11T18:02:51.121Z,5.63
2019-03-11T18:05:20.738Z,6.79
2019-03-11T18:07:50.274Z,6.77
2019-03-11T18:10:19.746Z,6.74
2019-03-11T18:12:49.696Z,6.68
2019-03-11T18:15:53.559Z,6.67
2019-03-11T18:18:32.631Z,6.70
2019-03-11T18:20:54.386Z,6.68
2019-03-11T18:23:25.453Z,6.60
2019-03-11T18:25:54.879Z,6.55
2019-03-11T18:28:24.308Z,6.57
2019-03-11T18:30:54.171Z,6.52
2019-03-11T18:33:23.669Z,6.47
2019-03-11T18:35:53.052Z,6.38
2019-03-11T18:38:22.720Z,6.38
2019-03-11T18:40:54.260Z,6.33
2019-03-11T18:43:23.182Z,6.25
2019-03-11T18:45:53.067Z,6.21
2019-03-11T18:48:22.426Z,6.21
2019-03-11T18:50:51.963Z,5.99
2019-03-11T18:53:21.288Z,5.83
2019-03-11T18:55:51.489Z,5.78
2019-03-11T18:58:21.251Z,5.71
2019-03-11T19:00:50.731Z,5.73
2019-03-11T19:03:20.890Z,5.75
2019-03-11T19:05:50.461Z,5.83
2019-03-11T19:08:20.282Z,5.75
2019-03-11T19:10:49.714Z,5.75
2019-03-11T19:13:19.175Z,5.76
2019-03-11T19:15:48.907Z,5.71
2019-03-11T19:18:18.399Z,5.71
2019-03-11T19:20:47.733Z,5.72
2019-03-11T19:23:17.146Z,5.64
2019-03-11T19:25:46.994Z,5.70
2019-03-11T19:28:17.400Z,5.73
2019-03-11T19:30:46.757Z,5.70
2019-03-11T19:33:16.559Z,5.70
2019-03-11T19:35:45.964Z,5.72
2019-03-11T19:38:15.343Z,5.84
2019-03-11T19:40:44.747Z,5.76
2019-03-11T19:43:14.158Z,5.76
2019-03-11T19:45:43.608Z,5.86
2019-03-11T19:48:13.419Z,6.23
2019-03-11T19:50:42.840Z,6.61
2019-03-11T19:53:12.301Z,6.42
2019-03-11T19:55:41.670Z,5.94
2019-03-11T19:58:11.243Z,5.72
2019-03-11T20:00:40.984Z,5.67
2019-03-11T20:03:23.768Z,5.78
2019-03-11T20:05:42.471Z,5.75
2019-03-11T20:08:11.953Z,5.75
2019-03-11T20:10:41.800Z,5.76
2019-03-11T20:13:11.300Z,5.82
2019-03-11T20:15:43.000Z,5.82
2019-03-11T20:18:12.679Z,5.72
2019-03-11T20:20:42.144Z,5.72
2019-03-11T20:23:11.495Z,5.64
2019-03-11T20:25:41.383Z,5.48
2019-03-11T20:28:12.516Z,5.48
2019-03-11T20:30:45.359Z,5.41
2019-03-11T20:33:14.381Z,5.46
2019-03-11T20:35:43.759Z,5.55
2019-03-11T20:38:13.174Z,5.38
2019-03-11T20:40:42.541Z,5.33
2019-03-11T20:43:11.905Z,5.33
2019-03-11T20:45:41.740Z,5.30
2019-03-11T20:48:11.250Z,5.23
2019-03-11T20:50:42.334Z,5.18
2019-03-11T20:53:12.512Z,5.14
2019-03-11T20:55:42.562Z,5.14
2019-03-11T20:58:12.446Z,5.17
2019-03-11T21:00:41.880Z,5.17
2019-03-11T21:03:11.362Z,5.16
2019-03-11T21:05:41.318Z,5.16
2019-03-11T21:08:10.935Z,5.18
2019-03-11T21:10:40.426Z,5.18
2019-03-11T21:13:09.794Z,5.14
2019-03-11T21:15:39.152Z,5.15
2019-03-11T21:18:08.640Z,5.18
2019-03-11T21:20:38.053Z,5.24
2019-03-11T21:23:07.573Z,5.24
2019-03-11T21:25:37.021Z,5.27
2019-03-11T21:28:12.765Z,5.29
2019-03-11T21:30:42.192Z,5.25
2019-03-11T21:33:12.288Z,5.23
2019-03-11T21:35:41.803Z,5.29
2019-03-11T21:38:11.887Z,5.17
2019-03-11T21:40:42.614Z,5.30
2019-03-11T21:43:12.226Z,5.26
2019-03-11T21:45:41.847Z,5.07
2019-03-11T21:48:11.313Z,5.17
2019-03-11T21:50:40.671Z,5.20
2019-03-11T21:53:10.087Z,5.19
2019-03-11T21:55:39.481Z,5.12
2019-03-11T21:58:13.419Z,5.12
2019-03-11T22:00:40.135Z,5.07
2019-03-11T22:03:09.512Z,5.09
2019-03-11T22:05:38.996Z,5.14
2019-03-11T22:08:08.428Z,5.18
2019-03-11T22:10:37.898Z,5.20
2019-03-11T22:13:07.303Z,5.20
2019-03-11T22:15:36.701Z,5.14
2019-03-11T22:18:06.103Z,5.14
2019-03-11T22:20:35.475Z,5.12
2019-03-11T22:23:04.889Z,4.99
2019-03-11T22:25:34.305Z,4.88
2019-03-11T22:28:03.737Z,4.88
2019-03-11T22:30:33.467Z,4.91
2019-03-11T22:33:02.854Z,4.91
2019-03-11T22:35:32.249Z,4.91
2019-03-11T22:38:01.677Z,4.82
2019-03-11T22:40:31.427Z,4.68
2019-03-11T22:43:00.882Z,4.67
2019-03-11T22:45:30.400Z,4.72
2019-03-11T22:48:00.274Z,4.80
2019-03-11T22:50:29.779Z,4.67
2019-03-11T22:52:59.218Z,4.79
2019-03-11T22:55:28.808Z,4.79
2019-03-11T22:57:58.206Z,4.80
2019-03-11T23:00:55.099Z,4.76
2019-03-11T23:03:25.421Z,4.64
2019-03-11T23:05:58.209Z,4.60
2019-03-11T23:08:26.634Z,4.63
2019-03-11T23:10:56.059Z,4.64
2019-03-11T23:13:25.481Z,4.49
2019-03-11T23:15:55.008Z,4.54
2019-03-11T23:18:25.229Z,4.43
2019-03-11T23:20:54.647Z,4.32
2019-03-11T23:23:24.017Z,4.33
2019-03-11T23:25:53.921Z,4.43
2019-03-11T23:28:23.316Z,4.44
2019-03-11T23:30:52.764Z,4.44
2019-03-11T23:33:22.783Z,4.37
2019-03-11T23:35:52.213Z,4.35
2019-03-11T23:38:21.735Z,4.30
2019-03-11T23:40:51.087Z,4.30
2019-03-11T23:43:20.937Z,4.23
2019-03-11T23:45:50.337Z,4.19
2019-03-11T23:48:19.767Z,4.23
2019-03-11T23:50:49.210Z,4.26
2019-03-11T23:53:18.610Z,4.22
2019-03-11T23:55:48.036Z,4.27
2019-03-11T23:58:17.807Z,4.31
